sensor_id;sensor_type;location;lat;lon;timestamp;P1;durP1;ratioP1;P2;durP2;ratioP2
23506;SDS011;11930;53.076;18.250;2023-12-20T00:00:23;7.53;;;4.63;;
23506;SDS011;11930;53.076;18.250;2023-12-20T00:03:09;6.07;;;4.37;;
23506;SDS011;11930;53.076;18.250;2023-12-20T00:05:36;5.40;;;3.70;;
23506;SDS011;11930;53.076;18.250;2023-12-20T00:08:04;6.20;;;4.00;;
23506;SDS011;11930;53.076;18.250;2023-12-20T00:10:30;7.83;;;4.30;;
23506;SDS011;11930;53.076;18.250;2023-12-20T00:12:56;5.27;;;3.90;;
23506;SDS011;11930;53.076;18.250;2023-12-20T00:15:22;7.17;;;4.17;;
23506;SDS011;11930;53.076;18.250;2023-12-20T00:17:49;6.27;;;4.33;;
23506;SDS011;11930;53.076;18.250;2023-12-20T00:20:15;5.83;;;3.90;;
23506;SDS011;11930;53.076;18.250;2023-12-20T00:22:41;6.93;;;4.10;;
23506;SDS011;11930;53.076;18.250;2023-12-20T00:25:07;5.57;;;3.93;;
23506;SDS011;11930;53.076;18.250;2023-12-20T00:27:34;6.87;;;4.20;;
23506;SDS011;11930;53.076;18.250;2023-12-20T00:30:00;5.97;;;3.77;;
23506;SDS011;11930;53.076;18.250;2023-12-20T00:32:26;5.07;;;3.87;;
23506;SDS011;11930;53.076;18.250;2023-12-20T00:34:52;5.50;;;4.23;;
23506;SDS011;11930;53.076;18.250;2023-12-20T00:37:18;4.97;;;3.60;;
23506;SDS011;11930;53.076;18.250;2023-12-20T00:39:44;4.77;;;3.43;;
23506;SDS011;11930;53.076;18.250;2023-12-20T00:42:11;5.07;;;3.70;;
23506;SDS011;11930;53.076;18.250;2023-12-20T00:44:37;5.73;;;3.83;;
23506;SDS011;11930;53.076;18.250;2023-12-20T00:47:03;4.83;;;3.60;;
23506;SDS011;11930;53.076;18.250;2023-12-20T00:49:29;5.20;;;3.63;;
23506;SDS011;11930;53.076;18.250;2023-12-20T00:51:55;4.90;;;3.47;;
23506;SDS011;11930;53.076;18.250;2023-12-20T00:54:21;4.83;;;3.40;;
23506;SDS011;11930;53.076;18.250;2023-12-20T00:56:48;4.77;;;3.37;;
23506;SDS011;11930;53.076;18.250;2023-12-20T00:59:15;4.47;;;3.07;;
23506;SDS011;11930;53.076;18.250;2023-12-20T01:01:42;5.03;;;3.63;;
23506;SDS011;11930;53.076;18.250;2023-12-20T01:04:08;4.93;;;3.00;;
23506;SDS011;11930;53.076;18.250;2023-12-20T01:06:34;4.20;;;3.13;;
23506;SDS011;11930;53.076;18.250;2023-12-20T01:09:00;4.80;;;3.40;;
23506;SDS011;11930;53.076;18.250;2023-12-20T01:11:27;5.00;;;3.27;;
23506;SDS011;11930;53.076;18.250;2023-12-20T01:13:53;4.13;;;2.77;;
23506;SDS011;11930;53.076;18.250;2023-12-20T01:16:20;4.70;;;3.43;;
23506;SDS011;11930;53.076;18.250;2023-12-20T01:18:46;4.30;;;3.00;;
23506;SDS011;11930;53.076;18.250;2023-12-20T01:21:12;4.50;;;3.10;;
23506;SDS011;11930;53.076;18.250;2023-12-20T01:23:38;4.63;;;2.93;;
23506;SDS011;11930;53.076;18.250;2023-12-20T01:26:05;4.77;;;2.93;;
23506;SDS011;11930;53.076;18.250;2023-12-20T01:28:31;4.83;;;2.97;;
23506;SDS011;11930;53.076;18.250;2023-12-20T01:30:57;4.43;;;3.23;;
23506;SDS011;11930;53.076;18.250;2023-12-20T01:33:23;4.40;;;2.97;;
23506;SDS011;11930;53.076;18.250;2023-12-20T01:35:50;4.03;;;3.13;;
23506;SDS011;11930;53.076;18.250;2023-12-20T01:38:16;3.40;;;2.50;;
23506;SDS011;11930;53.076;18.250;2023-12-20T01:40:44;4.93;;;2.93;;
23506;SDS011;11930;53.076;18.250;2023-12-20T01:43:10;3.63;;;2.73;;
23506;SDS011;11930;53.076;18.250;2023-12-20T01:45:38;3.40;;;2.73;;
23506;SDS011;11930;53.076;18.250;2023-12-20T01:48:04;3.30;;;2.40;;
23506;SDS011;11930;53.076;18.250;2023-12-20T01:50:31;3.70;;;2.60;;
23506;SDS011;11930;53.076;18.250;2023-12-20T01:52:58;4.13;;;2.70;;
23506;SDS011;11930;53.076;18.250;2023-12-20T01:55:27;4.00;;;2.67;;
23506;SDS011;11930;53.076;18.250;2023-12-20T01:57:57;5.00;;;2.87;;
23506;SDS011;11930;53.076;18.250;2023-12-20T02:00:25;3.50;;;2.47;;
23506;SDS011;11930;53.076;18.250;2023-12-20T02:02:53;3.70;;;2.70;;
23506;SDS011;11930;53.076;18.250;2023-12-20T02:05:23;4.73;;;2.60;;
23506;SDS011;11930;53.076;18.250;2023-12-20T02:07:51;3.27;;;2.40;;
23506;SDS011;11930;53.076;18.250;2023-12-20T02:10:17;3.87;;;2.63;;
23506;SDS011;11930;53.076;18.250;2023-12-20T02:12:43;4.73;;;2.57;;
23506;SDS011;11930;53.076;18.250;2023-12-20T02:15:09;3.77;;;2.70;;
23506;SDS011;11930;53.076;18.250;2023-12-20T02:17:36;4.50;;;2.80;;
23506;SDS011;11930;53.076;18.250;2023-12-20T02:20:04;3.57;;;2.40;;
23506;SDS011;11930;53.076;18.250;2023-12-20T02:22:31;3.43;;;2.70;;
23506;SDS011;11930;53.076;18.250;2023-12-20T02:24:57;3.33;;;2.37;;
23506;SDS011;11930;53.076;18.250;2023-12-20T02:27:23;4.13;;;2.47;;
23506;SDS011;11930;53.076;18.250;2023-12-20T02:29:50;3.40;;;2.43;;
23506;SDS011;11930;53.076;18.250;2023-12-20T02:32:17;4.17;;;2.80;;
23506;SDS011;11930;53.076;18.250;2023-12-20T02:34:43;3.77;;;2.33;;
23506;SDS011;11930;53.076;18.250;2023-12-20T02:37:10;3.53;;;2.57;;
23506;SDS011;11930;53.076;18.250;2023-12-20T02:39:36;4.30;;;2.80;;
23506;SDS011;11930;53.076;18.250;2023-12-20T02:42:02;3.40;;;2.80;;
23506;SDS011;11930;53.076;18.250;2023-12-20T02:44:29;3.13;;;2.23;;
23506;SDS011;11930;53.076;18.250;2023-12-20T02:46:55;3.73;;;2.77;;
23506;SDS011;11930;53.076;18.250;2023-12-20T02:49:21;3.87;;;2.77;;
23506;SDS011;11930;53.076;18.250;2023-12-20T02:51:47;3.40;;;2.53;;
23506;SDS011;11930;53.076;18.250;2023-12-20T02:54:14;3.00;;;2.20;;
23506;SDS011;11930;53.076;18.250;2023-12-20T02:56:40;4.17;;;2.50;;
23506;SDS011;11930;53.076;18.250;2023-12-20T02:59:06;3.20;;;2.50;;
23506;SDS011;11930;53.076;18.250;2023-12-20T03:01:34;3.00;;;2.20;;
23506;SDS011;11930;53.076;18.250;2023-12-20T03:04:01;3.27;;;2.50;;
23506;SDS011;11930;53.076;18.250;2023-12-20T03:06:27;3.43;;;2.43;;
23506;SDS011;11930;53.076;18.250;2023-12-20T03:08:53;3.50;;;2.60;;
23506;SDS011;11930;53.076;18.250;2023-12-20T03:11:19;4.37;;;2.63;;
23506;SDS011;11930;53.076;18.250;2023-12-20T03:13:45;4.03;;;2.50;;
23506;SDS011;11930;53.076;18.250;2023-12-20T03:16:12;3.47;;;2.53;;
23506;SDS011;11930;53.076;18.250;2023-12-20T03:18:39;3.40;;;2.50;;
23506;SDS011;11930;53.076;18.250;2023-12-20T03:21:05;3.57;;;2.73;;
23506;SDS011;11930;53.076;18.250;2023-12-20T03:23:31;4.30;;;2.60;;
23506;SDS011;11930;53.076;18.250;2023-12-20T03:25:59;3.83;;;2.77;;
23506;SDS011;11930;53.076;18.250;2023-12-20T03:28:26;4.10;;;2.80;;
23506;SDS011;11930;53.076;18.250;2023-12-20T03:30:53;3.70;;;2.83;;
23506;SDS011;11930;53.076;18.250;2023-12-20T03:33:19;3.87;;;2.67;;
23506;SDS011;11930;53.076;18.250;2023-12-20T03:35:45;4.73;;;2.93;;
23506;SDS011;11930;53.076;18.250;2023-12-20T03:38:12;3.73;;;2.70;;
23506;SDS011;11930;53.076;18.250;2023-12-20T03:40:38;4.27;;;3.00;;
23506;SDS011;11930;53.076;18.250;2023-12-20T03:43:05;4.73;;;2.93;;
23506;SDS011;11930;53.076;18.250;2023-12-20T03:45:31;4.27;;;3.13;;
23506;SDS011;11930;53.076;18.250;2023-12-20T03:47:57;3.60;;;2.87;;
23506;SDS011;11930;53.076;18.250;2023-12-20T03:50:23;4.40;;;3.00;;
23506;SDS011;11930;53.076;18.250;2023-12-20T03:52:49;3.80;;;3.00;;
23506;SDS011;11930;53.076;18.250;2023-12-20T03:55:15;3.77;;;2.93;;
23506;SDS011;11930;53.076;18.250;2023-12-20T03:57:42;4.03;;;3.13;;
23506;SDS011;11930;53.076;18.250;2023-12-20T04:00:08;5.23;;;3.07;;
23506;SDS011;11930;53.076;18.250;2023-12-20T04:02:38;4.80;;;2.93;;
23506;SDS011;11930;53.076;18.250;2023-12-20T04:05:06;5.57;;;3.20;;
23506;SDS011;11930;53.076;18.250;2023-12-20T04:07:33;4.77;;;3.30;;
23506;SDS011;11930;53.076;18.250;2023-12-20T04:09:59;4.03;;;2.90;;
23506;SDS011;11930;53.076;18.250;2023-12-20T04:12:27;4.80;;;3.30;;
23506;SDS011;11930;53.076;18.250;2023-12-20T04:14:53;4.10;;;3.20;;
23506;SDS011;11930;53.076;18.250;2023-12-20T04:17:20;4.37;;;3.30;;
23506;SDS011;11930;53.076;18.250;2023-12-20T04:19:48;5.30;;;3.43;;
23506;SDS011;11930;53.076;18.250;2023-12-20T04:22:15;4.00;;;2.80;;
23506;SDS011;11930;53.076;18.250;2023-12-20T04:24:42;3.97;;;2.67;;
23506;SDS011;11930;53.076;18.250;2023-12-20T04:27:09;4.23;;;2.80;;
23506;SDS011;11930;53.076;18.250;2023-12-20T04:29:35;4.10;;;2.70;;
23506;SDS011;11930;53.076;18.250;2023-12-20T04:32:01;3.63;;;2.60;;
23506;SDS011;11930;53.076;18.250;2023-12-20T04:34:27;4.70;;;2.50;;
23506;SDS011;11930;53.076;18.250;2023-12-20T04:36:54;3.57;;;2.77;;
23506;SDS011;11930;53.076;18.250;2023-12-20T04:39:20;2.80;;;2.27;;
23506;SDS011;11930;53.076;18.250;2023-12-20T04:41:46;3.13;;;2.33;;
23506;SDS011;11930;53.076;18.250;2023-12-20T04:44:13;3.53;;;2.40;;
23506;SDS011;11930;53.076;18.250;2023-12-20T04:46:39;3.87;;;2.07;;
23506;SDS011;11930;53.076;18.250;2023-12-20T04:49:05;2.97;;;2.10;;
23506;SDS011;11930;53.076;18.250;2023-12-20T04:51:35;2.77;;;1.90;;
23506;SDS011;11930;53.076;18.250;2023-12-20T04:54:01;3.87;;;2.50;;
23506;SDS011;11930;53.076;18.250;2023-12-20T04:56:28;4.10;;;2.63;;
23506;SDS011;11930;53.076;18.250;2023-12-20T04:58:54;3.60;;;2.30;;
23506;SDS011;11930;53.076;18.250;2023-12-20T05:01:20;4.00;;;2.80;;
23506;SDS011;11930;53.076;18.250;2023-12-20T05:03:47;3.70;;;2.67;;
23506;SDS011;11930;53.076;18.250;2023-12-20T05:06:13;4.87;;;3.07;;
23506;SDS011;11930;53.076;18.250;2023-12-20T05:08:40;4.13;;;2.80;;
23506;SDS011;11930;53.076;18.250;2023-12-20T05:11:06;4.70;;;2.90;;
23506;SDS011;11930;53.076;18.250;2023-12-20T05:13:32;4.50;;;2.80;;
23506;SDS011;11930;53.076;18.250;2023-12-20T05:15:59;3.93;;;2.60;;
23506;SDS011;11930;53.076;18.250;2023-12-20T05:18:24;4.13;;;2.47;;
23506;SDS011;11930;53.076;18.250;2023-12-20T05:20:51;3.57;;;2.20;;
23506;SDS011;11930;53.076;18.250;2023-12-20T05:23:17;5.07;;;2.67;;
23506;SDS011;11930;53.076;18.250;2023-12-20T05:25:44;4.30;;;2.57;;
23506;SDS011;11930;53.076;18.250;2023-12-20T05:28:10;3.80;;;2.50;;
23506;SDS011;11930;53.076;18.250;2023-12-20T05:30:36;4.30;;;2.30;;
23506;SDS011;11930;53.076;18.250;2023-12-20T05:33:02;4.07;;;2.00;;
23506;SDS011;11930;53.076;18.250;2023-12-20T05:35:28;3.17;;;2.07;;
23506;SDS011;11930;53.076;18.250;2023-12-20T05:37:54;3.20;;;2.00;;
23506;SDS011;11930;53.076;18.250;2023-12-20T05:40:21;4.10;;;1.97;;
23506;SDS011;11930;53.076;18.250;2023-12-20T05:42:47;3.07;;;2.07;;
23506;SDS011;11930;53.076;18.250;2023-12-20T05:45:14;2.70;;;1.90;;
23506;SDS011;11930;53.076;18.250;2023-12-20T05:47:40;3.13;;;2.00;;
23506;SDS011;11930;53.076;18.250;2023-12-20T05:50:06;2.47;;;1.90;;
23506;SDS011;11930;53.076;18.250;2023-12-20T05:52:33;4.47;;;2.10;;
23506;SDS011;11930;53.076;18.250;2023-12-20T05:55:00;3.90;;;2.10;;
23506;SDS011;11930;53.076;18.250;2023-12-20T05:57:29;4.60;;;2.13;;
23506;SDS011;11930;53.076;18.250;2023-12-20T05:59:55;4.13;;;1.97;;
23506;SDS011;11930;53.076;18.250;2023-12-20T06:02:21;3.30;;;1.97;;
23506;SDS011;11930;53.076;18.250;2023-12-20T06:04:47;3.70;;;2.00;;
23506;SDS011;11930;53.076;18.250;2023-12-20T06:07:14;3.70;;;2.23;;
23506;SDS011;11930;53.076;18.250;2023-12-20T06:09:41;3.13;;;1.80;;
23506;SDS011;11930;53.076;18.250;2023-12-20T06:12:07;3.27;;;1.93;;
23506;SDS011;11930;53.076;18.250;2023-12-20T06:14:34;3.47;;;2.10;;
23506;SDS011;11930;53.076;18.250;2023-12-20T06:17:00;4.30;;;2.20;;
23506;SDS011;11930;53.076;18.250;2023-12-20T06:19:27;4.33;;;2.10;;
23506;SDS011;11930;53.076;18.250;2023-12-20T06:21:54;3.90;;;2.05;;
23506;SDS011;11930;53.076;18.250;2023-12-20T06:24:20;3.90;;;1.90;;
23506;SDS011;11930;53.076;18.250;2023-12-20T06:26:47;5.17;;;2.10;;
23506;SDS011;11930;53.076;18.250;2023-12-20T06:29:13;4.43;;;2.17;;
23506;SDS011;11930;53.076;18.250;2023-12-20T06:31:39;3.53;;;2.03;;
23506;SDS011;11930;53.076;18.250;2023-12-20T06:34:05;5.07;;;2.00;;
23506;SDS011;11930;53.076;18.250;2023-12-20T06:36:31;3.27;;;1.90;;
23506;SDS011;11930;53.076;18.250;2023-12-20T06:38:58;3.50;;;2.00;;
23506;SDS011;11930;53.076;18.250;2023-12-20T06:41:24;7.13;;;2.57;;
23506;SDS011;11930;53.076;18.250;2023-12-20T06:43:50;4.33;;;2.47;;
23506;SDS011;11930;53.076;18.250;2023-12-20T06:46:18;6.00;;;2.40;;
23506;SDS011;11930;53.076;18.250;2023-12-20T06:48:44;4.50;;;2.67;;
23506;SDS011;11930;53.076;18.250;2023-12-20T06:51:11;6.23;;;2.30;;
23506;SDS011;11930;53.076;18.250;2023-12-20T06:53:41;6.20;;;2.17;;
23506;SDS011;11930;53.076;18.250;2023-12-20T06:56:07;4.20;;;2.27;;
23506;SDS011;11930;53.076;18.250;2023-12-20T06:58:35;3.50;;;2.10;;
23506;SDS011;11930;53.076;18.250;2023-12-20T07:01:02;5.37;;;2.30;;
23506;SDS011;11930;53.076;18.250;2023-12-20T07:03:28;4.83;;;2.07;;
23506;SDS011;11930;53.076;18.250;2023-12-20T07:05:54;4.27;;;1.97;;
23506;SDS011;11930;53.076;18.250;2023-12-20T07:08:21;6.13;;;2.47;;
23506;SDS011;11930;53.076;18.250;2023-12-20T07:10:47;4.07;;;1.90;;
23506;SDS011;11930;53.076;18.250;2023-12-20T07:13:13;4.67;;;2.00;;
23506;SDS011;11930;53.076;18.250;2023-12-20T07:15:39;4.40;;;2.30;;
23506;SDS011;11930;53.076;18.250;2023-12-20T07:18:05;5.40;;;2.33;;
23506;SDS011;11930;53.076;18.250;2023-12-20T07:20:32;4.47;;;2.10;;
23506;SDS011;11930;53.076;18.250;2023-12-20T07:22:59;5.43;;;2.47;;
23506;SDS011;11930;53.076;18.250;2023-12-20T07:25:25;5.20;;;2.77;;
23506;SDS011;11930;53.076;18.250;2023-12-20T07:27:51;6.20;;;2.50;;
23506;SDS011;11930;53.076;18.250;2023-12-20T07:30:17;4.80;;;2.60;;
23506;SDS011;11930;53.076;18.250;2023-12-20T07:32:44;4.83;;;2.70;;
23506;SDS011;11930;53.076;18.250;2023-12-20T07:35:10;3.07;;;1.90;;
23506;SDS011;11930;53.076;18.250;2023-12-20T07:37:36;5.27;;;2.77;;
23506;SDS011;11930;53.076;18.250;2023-12-20T07:40:03;3.73;;;2.30;;
23506;SDS011;11930;53.076;18.250;2023-12-20T07:42:29;4.43;;;1.97;;
23506;SDS011;11930;53.076;18.250;2023-12-20T07:44:55;3.57;;;1.77;;
23506;SDS011;11930;53.076;18.250;2023-12-20T07:47:22;4.27;;;2.10;;
23506;SDS011;11930;53.076;18.250;2023-12-20T07:49:48;5.30;;;2.57;;
23506;SDS011;11930;53.076;18.250;2023-12-20T07:52:15;6.90;;;2.33;;
23506;SDS011;11930;53.076;18.250;2023-12-20T07:54:41;6.00;;;2.50;;
23506;SDS011;11930;53.076;18.250;2023-12-20T07:57:08;5.70;;;2.13;;
23506;SDS011;11930;53.076;18.250;2023-12-20T07:59:34;4.43;;;2.00;;
23506;SDS011;11930;53.076;18.250;2023-12-20T08:02:00;4.13;;;1.77;;
23506;SDS011;11930;53.076;18.250;2023-12-20T08:04:26;5.57;;;1.80;;
23506;SDS011;11930;53.076;18.250;2023-12-20T08:06:53;4.13;;;1.80;;
23506;SDS011;11930;53.076;18.250;2023-12-20T08:09:19;4.20;;;1.60;;
23506;SDS011;11930;53.076;18.250;2023-12-20T08:11:45;6.33;;;2.50;;
23506;SDS011;11930;53.076;18.250;2023-12-20T08:14:12;7.70;;;2.53;;
23506;SDS011;11930;53.076;18.250;2023-12-20T08:16:39;4.10;;;2.07;;
23506;SDS011;11930;53.076;18.250;2023-12-20T08:19:05;4.77;;;2.53;;
23506;SDS011;11930;53.076;18.250;2023-12-20T08:21:31;4.50;;;2.57;;
23506;SDS011;11930;53.076;18.250;2023-12-20T08:23:57;4.90;;;2.80;;
23506;SDS011;11930;53.076;18.250;2023-12-20T08:26:26;4.70;;;2.90;;
23506;SDS011;11930;53.076;18.250;2023-12-20T08:28:52;7.30;;;3.43;;
23506;SDS011;11930;53.076;18.250;2023-12-20T08:31:19;6.63;;;3.20;;
23506;SDS011;11930;53.076;18.250;2023-12-20T08:33:47;6.27;;;3.80;;
23506;SDS011;11930;53.076;18.250;2023-12-20T08:36:14;9.13;;;3.83;;
23506;SDS011;11930;53.076;18.250;2023-12-20T08:38:43;8.93;;;4.13;;
23506;SDS011;11930;53.076;18.250;2023-12-20T08:41:09;8.17;;;4.00;;
23506;SDS011;11930;53.076;18.250;2023-12-20T08:43:35;7.13;;;3.93;;
23506;SDS011;11930;53.076;18.250;2023-12-20T08:46:02;8.73;;;4.17;;
23506;SDS011;11930;53.076;18.250;2023-12-20T08:48:28;7.83;;;4.43;;
23506;SDS011;11930;53.076;18.250;2023-12-20T08:50:55;6.90;;;4.23;;
23506;SDS011;11930;53.076;18.250;2023-12-20T08:53:21;6.00;;;3.70;;
23506;SDS011;11930;53.076;18.250;2023-12-20T08:55:47;10.10;;;4.50;;
23506;SDS011;11930;53.076;18.250;2023-12-20T08:58:13;6.53;;;3.10;;
23506;SDS011;11930;53.076;18.250;2023-12-20T09:00:40;7.17;;;3.33;;
23506;SDS011;11930;53.076;18.250;2023-12-20T09:03:06;6.37;;;3.47;;
23506;SDS011;11930;53.076;18.250;2023-12-20T09:05:33;8.17;;;3.43;;
23506;SDS011;11930;53.076;18.250;2023-12-20T09:07:59;7.30;;;3.17;;
23506;SDS011;11930;53.076;18.250;2023-12-20T09:10:25;7.90;;;3.77;;
23506;SDS011;11930;53.076;18.250;2023-12-20T09:12:52;5.97;;;2.97;;
23506;SDS011;11930;53.076;18.250;2023-12-20T09:15:24;9.93;;;3.63;;
23506;SDS011;11930;53.076;18.250;2023-12-20T09:17:52;10.67;;;4.40;;
23506;SDS011;11930;53.076;18.250;2023-12-20T09:20:18;6.93;;;2.70;;
23506;SDS011;11930;53.076;18.250;2023-12-20T09:22:45;6.40;;;2.93;;
23506;SDS011;11930;53.076;18.250;2023-12-20T09:25:12;6.30;;;2.60;;
23506;SDS011;11930;53.076;18.250;2023-12-20T09:27:39;8.80;;;3.37;;
23506;SDS011;11930;53.076;18.250;2023-12-20T09:30:06;5.97;;;2.83;;
23506;SDS011;11930;53.076;18.250;2023-12-20T09:32:33;6.53;;;2.80;;
23506;SDS011;11930;53.076;18.250;2023-12-20T09:34:59;6.80;;;2.70;;
23506;SDS011;11930;53.076;18.250;2023-12-20T09:37:26;7.60;;;2.70;;
23506;SDS011;11930;53.076;18.250;2023-12-20T09:39:53;6.33;;;2.90;;
23506;SDS011;11930;53.076;18.250;2023-12-20T09:42:38;6.37;;;3.30;;
23506;SDS011;11930;53.076;18.250;2023-12-20T09:45:19;7.40;;;3.57;;
23506;SDS011;11930;53.076;18.250;2023-12-20T09:47:47;7.43;;;3.57;;
23506;SDS011;11930;53.076;18.250;2023-12-20T09:50:15;4.50;;;2.53;;
23506;SDS011;11930;53.076;18.250;2023-12-20T09:52:43;4.60;;;2.70;;
23506;SDS011;11930;53.076;18.250;2023-12-20T09:55:11;4.90;;;2.27;;
23506;SDS011;11930;53.076;18.250;2023-12-20T09:57:38;5.00;;;2.80;;
23506;SDS011;11930;53.076;18.250;2023-12-20T10:00:05;3.93;;;2.53;;
23506;SDS011;11930;53.076;18.250;2023-12-20T10:02:38;6.50;;;2.70;;
23506;SDS011;11930;53.076;18.250;2023-12-20T10:05:35;5.57;;;2.37;;
23506;SDS011;11930;53.076;18.250;2023-12-20T10:08:01;5.63;;;2.37;;
23506;SDS011;11930;53.076;18.250;2023-12-20T10:10:28;4.30;;;2.40;;
23506;SDS011;11930;53.076;18.250;2023-12-20T10:13:05;6.00;;;2.60;;
23506;SDS011;11930;53.076;18.250;2023-12-20T10:15:33;4.47;;;2.43;;
23506;SDS011;11930;53.076;18.250;2023-12-20T10:17:59;5.13;;;3.00;;
23506;SDS011;11930;53.076;18.250;2023-12-20T10:20:30;5.57;;;2.83;;
23506;SDS011;11930;53.076;18.250;2023-12-20T10:22:57;7.20;;;3.23;;
23506;SDS011;11930;53.076;18.250;2023-12-20T10:25:24;6.50;;;2.57;;
23506;SDS011;11930;53.076;18.250;2023-12-20T10:28:08;4.77;;;2.47;;
23506;SDS011;11930;53.076;18.250;2023-12-20T10:30:39;6.10;;;2.83;;
23506;SDS011;11930;53.076;18.250;2023-12-20T10:33:06;5.87;;;2.40;;
23506;SDS011;11930;53.076;18.250;2023-12-20T10:35:37;9.87;;;2.90;;
23506;SDS011;11930;53.076;18.250;2023-12-20T10:38:04;5.53;;;2.20;;
23506;SDS011;11930;53.076;18.250;2023-12-20T10:40:34;14.40;;;7.03;;
23506;SDS011;11930;53.076;18.250;2023-12-20T10:43:02;8.07;;;3.23;;
23506;SDS011;11930;53.076;18.250;2023-12-20T10:45:29;6.50;;;2.10;;
23506;SDS011;11930;53.076;18.250;2023-12-20T10:47:55;5.20;;;2.40;;
23506;SDS011;11930;53.076;18.250;2023-12-20T10:50:26;5.40;;;2.57;;
23506;SDS011;11930;53.076;18.250;2023-12-20T10:52:54;5.93;;;2.10;;
23506;SDS011;11930;53.076;18.250;2023-12-20T10:55:21;7.43;;;2.40;;
23506;SDS011;11930;53.076;18.250;2023-12-20T10:57:51;36.07;;;13.63;;
23506;SDS011;11930;53.076;18.250;2023-12-20T11:00:18;30.07;;;14.10;;
23506;SDS011;11930;53.076;18.250;2023-12-20T11:02:46;6.40;;;3.30;;
23506;SDS011;11930;53.076;18.250;2023-12-20T11:07:52;6.17;;;2.23;;
23506;SDS011;11930;53.076;18.250;2023-12-20T11:10:31;4.07;;;2.40;;
23506;SDS011;11930;53.076;18.250;2023-12-20T11:13:08;5.00;;;2.73;;
23506;SDS011;11930;53.076;18.250;2023-12-20T11:15:38;6.90;;;2.20;;
23506;SDS011;11930;53.076;18.250;2023-12-20T11:18:04;3.70;;;2.00;;
23506;SDS011;11930;53.076;18.250;2023-12-20T11:20:36;5.43;;;2.00;;
23506;SDS011;11930;53.076;18.250;2023-12-20T11:23:05;7.00;;;2.30;;
23506;SDS011;11930;53.076;18.250;2023-12-20T11:25:52;6.37;;;2.60;;
23506;SDS011;11930;53.076;18.250;2023-12-20T11:28:23;14.57;;;6.73;;
23506;SDS011;11930;53.076;18.250;2023-12-20T11:30:51;7.77;;;3.13;;
23506;SDS011;11930;53.076;18.250;2023-12-20T11:33:22;7.63;;;2.57;;
23506;SDS011;11930;53.076;18.250;2023-12-20T11:35:50;5.07;;;2.10;;
23506;SDS011;11930;53.076;18.250;2023-12-20T11:38:16;3.93;;;1.80;;
23506;SDS011;11930;53.076;18.250;2023-12-20T11:40:47;7.47;;;2.30;;
23506;SDS011;11930;53.076;18.250;2023-12-20T11:43:31;3.93;;;1.70;;
23506;SDS011;11930;53.076;18.250;2023-12-20T11:46:04;4.13;;;1.77;;
23506;SDS011;11930;53.076;18.250;2023-12-20T11:48:31;5.77;;;2.00;;
23506;SDS011;11930;53.076;18.250;2023-12-20T11:50:58;4.00;;;1.67;;
23506;SDS011;11930;53.076;18.250;2023-12-20T11:53:24;5.07;;;1.53;;
23506;SDS011;11930;53.076;18.250;2023-12-20T11:55:51;4.23;;;2.00;;
23506;SDS011;11930;53.076;18.250;2023-12-20T11:58:17;5.20;;;2.67;;
23506;SDS011;11930;53.076;18.250;2023-12-20T12:00:43;5.87;;;2.10;;
23506;SDS011;11930;53.076;18.250;2023-12-20T12:03:09;6.43;;;1.93;;
23506;SDS011;11930;53.076;18.250;2023-12-20T12:05:36;4.97;;;2.40;;
23506;SDS011;11930;53.076;18.250;2023-12-20T12:08:02;7.33;;;2.00;;
23506;SDS011;11930;53.076;18.250;2023-12-20T12:10:29;4.77;;;1.70;;
23506;SDS011;11930;53.076;18.250;2023-12-20T12:12:56;7.60;;;2.83;;
23506;SDS011;11930;53.076;18.250;2023-12-20T12:15:22;37.03;;;19.10;;
23506;SDS011;11930;53.076;18.250;2023-12-20T12:17:55;35.43;;;18.10;;
23506;SDS011;11930;53.076;18.250;2023-12-20T12:20:22;5.13;;;2.77;;
23506;SDS011;11930;53.076;18.250;2023-12-20T12:22:58;6.57;;;2.53;;
23506;SDS011;11930;53.076;18.250;2023-12-20T12:25:25;12.40;;;5.50;;
23506;SDS011;11930;53.076;18.250;2023-12-20T12:27:52;11.97;;;5.80;;
23506;SDS011;11930;53.076;18.250;2023-12-20T12:30:19;9.00;;;2.87;;
23506;SDS011;11930;53.076;18.250;2023-12-20T12:32:45;9.47;;;5.27;;
23506;SDS011;11930;53.076;18.250;2023-12-20T12:35:11;12.73;;;6.40;;
23506;SDS011;11930;53.076;18.250;2023-12-20T12:37:38;9.37;;;2.60;;
23506;SDS011;11930;53.076;18.250;2023-12-20T12:40:09;6.40;;;3.20;;
23506;SDS011;11930;53.076;18.250;2023-12-20T12:42:37;7.83;;;2.70;;
23506;SDS011;11930;53.076;18.250;2023-12-20T12:45:04;13.83;;;6.43;;
23506;SDS011;11930;53.076;18.250;2023-12-20T12:47:30;7.33;;;3.37;;
23506;SDS011;11930;53.076;18.250;2023-12-20T12:49:57;9.07;;;3.47;;
23506;SDS011;11930;53.076;18.250;2023-12-20T12:52:23;7.60;;;3.43;;
23506;SDS011;11930;53.076;18.250;2023-12-20T12:54:50;25.33;;;11.63;;
23506;SDS011;11930;53.076;18.250;2023-12-20T12:57:16;9.67;;;3.73;;
23506;SDS011;11930;53.076;18.250;2023-12-20T12:59:43;6.23;;;2.30;;
23506;SDS011;11930;53.076;18.250;2023-12-20T13:02:11;11.13;;;4.83;;
23506;SDS011;11930;53.076;18.250;2023-12-20T13:04:39;32.77;;;15.87;;
23506;SDS011;11930;53.076;18.250;2023-12-20T13:07:06;7.27;;;3.67;;
23506;SDS011;11930;53.076;18.250;2023-12-20T13:09:33;29.67;;;11.40;;
23506;SDS011;11930;53.076;18.250;2023-12-20T13:12:00;31.13;;;11.90;;
23506;SDS011;11930;53.076;18.250;2023-12-20T13:14:30;28.03;;;12.87;;
23506;SDS011;11930;53.076;18.250;2023-12-20T13:16:58;18.13;;;7.20;;
23506;SDS011;11930;53.076;18.250;2023-12-20T13:19:24;21.67;;;11.27;;
23506;SDS011;11930;53.076;18.250;2023-12-20T13:21:50;10.80;;;5.33;;
23506;SDS011;11930;53.076;18.250;2023-12-20T13:24:17;7.07;;;3.30;;
23506;SDS011;11930;53.076;18.250;2023-12-20T13:26:44;5.00;;;1.80;;
23506;SDS011;11930;53.076;18.250;2023-12-20T13:29:10;9.50;;;5.67;;
23506;SDS011;11930;53.076;18.250;2023-12-20T13:31:37;6.03;;;2.10;;
23506;SDS011;11930;53.076;18.250;2023-12-20T13:34:04;10.67;;;3.37;;
23506;SDS011;11930;53.076;18.250;2023-12-20T13:36:30;6.27;;;1.90;;
23506;SDS011;11930;53.076;18.250;2023-12-20T13:38:56;4.43;;;1.77;;
23506;SDS011;11930;53.076;18.250;2023-12-20T13:41:23;4.57;;;2.20;;
23506;SDS011;11930;53.076;18.250;2023-12-20T13:43:49;5.67;;;1.80;;
23506;SDS011;11930;53.076;18.250;2023-12-20T13:46:15;3.90;;;1.73;;
23506;SDS011;11930;53.076;18.250;2023-12-20T13:48:43;7.67;;;3.70;;
23506;SDS011;11930;53.076;18.250;2023-12-20T13:51:09;15.70;;;8.90;;
23506;SDS011;11930;53.076;18.250;2023-12-20T13:53:35;18.17;;;8.33;;
23506;SDS011;11930;53.076;18.250;2023-12-20T13:56:01;9.07;;;3.97;;
23506;SDS011;11930;53.076;18.250;2023-12-20T13:58:28;15.00;;;6.97;;
23506;SDS011;11930;53.076;18.250;2023-12-20T14:00:54;14.60;;;5.67;;
23506;SDS011;11930;53.076;18.250;2023-12-20T14:03:20;40.77;;;17.57;;
23506;SDS011;11930;53.076;18.250;2023-12-20T14:05:46;27.47;;;13.30;;
23506;SDS011;11930;53.076;18.250;2023-12-20T14:08:13;24.37;;;10.30;;
23506;SDS011;11930;53.076;18.250;2023-12-20T14:10:39;13.93;;;5.87;;
23506;SDS011;11930;53.076;18.250;2023-12-20T14:13:05;24.73;;;9.27;;
23506;SDS011;11930;53.076;18.250;2023-12-20T14:15:31;21.63;;;9.80;;
23506;SDS011;11930;53.076;18.250;2023-12-20T14:18:05;10.37;;;5.07;;
23506;SDS011;11930;53.076;18.250;2023-12-20T14:20:33;18.53;;;7.17;;
23506;SDS011;11930;53.076;18.250;2023-12-20T14:23:03;14.97;;;7.13;;
23506;SDS011;11930;53.076;18.250;2023-12-20T14:25:29;26.60;;;13.17;;
23506;SDS011;11930;53.076;18.250;2023-12-20T14:27:57;12.70;;;6.40;;
23506;SDS011;11930;53.076;18.250;2023-12-20T14:30:23;22.70;;;11.23;;
23506;SDS011;11930;53.076;18.250;2023-12-20T14:32:50;13.13;;;5.77;;
23506;SDS011;11930;53.076;18.250;2023-12-20T14:35:16;12.00;;;5.00;;